Time,TemperatureF,DewpointF,PressureIn,WindDirection,WindDirectionDegrees,WindSpeedMPH,WindSpeedGustMPH,Humidity,HourlyPrecipIn,Conditions,Clouds,dailyrainin,SoftwareType,DateUTC
2013-05-21 00:03:00,68.0,65.0,30.07,ESE,117,2.0,3.0,91,-99.99,,,-99.99,,2013-05-21 04:03:00,
2013-05-21 00:13:00,68.0,65.0,30.07,SSW,200,2.0,3.0,91,-99.99,,,-99.99,,2013-05-21 04:13:00,
2013-05-21 00:23:00,68.0,65.0,30.07,SSW,200,2.0,3.0,91,-99.99,,,-99.99,,2013-05-21 04:23:00,
2013-05-21 00:33:00,68.0,65.0,30.07,SSW,200,2.0,3.0,91,-99.99,,,-99.99,,2013-05-21 04:33:00,
2013-05-21 00:42:00,66.0,63.0,30.07,SSE,155,2.0,3.0,91,-99.99,,,-99.99,,2013-05-21 04:42:00,
2013-05-21 00:53:00,66.0,63.0,30.07,SSE,155,2.0,3.0,91,-99.99,,,-99.99,,2013-05-21 04:53:00,
2013-05-21 01:02:00,66.0,64.0,30.06,SE,129,2.0,3.0,91,-99.99,,,-99.99,,2013-05-21 05:02:00,
2013-05-21 01:12:00,66.0,64.0,30.05,ENE,69,2.0,3.0,92,-99.99,,,-99.99,,2013-05-21 05:12:00,
2013-05-21 01:22:00,66.0,64.0,30.05,ENE,69,2.0,3.0,92,-99.99,,,-99.99,,2013-05-21 05:22:00,
2013-05-21 01:32:00,66.0,64.0,30.05,ENE,69,2.0,3.0,92,-99.99,,,-99.99,,2013-05-21 05:32:00,
2013-05-21 01:42:00,66.0,64.0,30.05,East,95,3.0,4.0,92,-99.99,,,-99.99,,2013-05-21 05:42:00,
2013-05-21 01:52:00,66.0,64.0,30.05,East,95,3.0,4.0,92,-99.99,,,-99.99,,2013-05-21 05:52:00,
2013-05-21 02:02:00,67.0,65.0,30.04,East,99,3.0,4.0,92,-99.99,,,-99.99,,2013-05-21 06:02:00,
2013-05-21 02:12:00,68.0,65.0,30.04,ESE,102,3.0,5.0,92,-99.99,,,-99.99,,2013-05-21 06:12:00,
2013-05-21 02:21:00,68.0,65.0,30.04,ESE,102,3.0,5.0,92,-99.99,,,-99.99,,2013-05-21 06:21:00,
2013-05-21 02:32:00,68.0,66.0,30.04,ESE,109,3.0,4.0,92,-99.99,,,-99.99,,2013-05-21 06:32:00,
2013-05-21 02:42:00,68.0,65.0,30.03,SE,129,3.0,4.0,92,-99.99,,,-99.99,,2013-05-21 06:42:00,
2013-05-21 02:52:00,68.0,65.0,30.03,SE,129,3.0,4.0,92,-99.99,,,-99.99,,2013-05-21 06:52:00,
2013-05-21 03:01:00,68.0,65.0,30.03,ENE,67,2.0,3.0,92,-99.99,,,-99.99,,2013-05-21 07:01:00,
2013-05-21 03:11:00,67.0,65.0,30.02,NNE,29,3.0,3.0,92,-99.99,,,-99.99,,2013-05-21 07:11:00,
2013-05-21 03:22:00,67.0,65.0,30.02,NNE,29,3.0,3.0,92,-99.99,,,-99.99,,2013-05-21 07:22:00,
2013-05-21 03:31:00,67.0,64.0,30.02,ENE,70,2.0,3.0,92,-99.99,,,-99.99,,2013-05-21 07:31:00,
2013-05-21 03:42:00,66.0,64.0,30.01,NE,46,2.0,3.0,92,-99.99,,,-99.99,,2013-05-21 07:42:00,
2013-05-21 03:52:00,66.0,64.0,30.01,NE,46,2.0,3.0,92,-99.99,,,-99.99,,2013-05-21 07:52:00,
2013-05-21 04:02:00,66.0,64.0,30.01,SSE,147,1.0,2.0,92,-99.99,,,-99.99,,2013-05-21 08:02:00,
2013-05-21 04:11:00,67.0,65.0,30.01,ESE,110,2.0,2.0,93,-99.99,,,-99.99,,2013-05-21 08:11:00,
2013-05-21 04:21:00,67.0,65.0,30.01,ESE,110,2.0,2.0,93,-99.99,,,-99.99,,2013-05-21 08:21:00,
2013-05-21 04:31:00,67.0,65.0,30.01,ESE,110,2.0,2.0,93,-99.99,,,-99.99,,2013-05-21 08:31:00,
2013-05-21 04:42:00,66.0,64.0,30.00,ESE,118,1.0,2.0,93,-99.99,,,-99.99,,2013-05-21 08:42:00,
2013-05-21 04:52:00,66.0,64.0,30.00,ESE,118,1.0,2.0,93,-99.99,,,-99.99,,2013-05-21 08:52:00,
2013-05-21 05:01:00,66.0,64.0,30.00,East,84,3.0,4.0,93,-99.99,,,-99.99,,2013-05-21 09:01:00,
2013-05-21 05:11:00,66.0,64.0,30.00,ESE,113,3.0,4.0,93,-99.99,,,-99.99,,2013-05-21 09:11:00,
2013-05-21 05:21:00,66.0,64.0,30.00,ESE,113,3.0,4.0,93,-99.99,,,-99.99,,2013-05-21 09:21:00,
2013-05-21 05:33:00,66.0,64.0,30.00,SE,135,3.0,4.0,93,-99.99,,,-99.99,,2013-05-21 09:33:00,
2013-05-21 05:42:00,66.0,64.0,30.00,SE,137,3.0,4.0,93,-99.99,,,-99.99,,2013-05-21 09:42:00,
2013-05-21 05:53:00,66.0,64.0,30.00,SE,137,3.0,4.0,93,-99.99,,,-99.99,,2013-05-21 09:53:00,
2013-05-21 06:03:00,67.0,65.0,30.00,SSE,149,3.0,4.0,93,-99.99,,,-99.99,,2013-05-21 10:03:00,
2013-05-21 06:12:00,67.0,65.0,30.00,SE,136,3.0,4.0,93,-99.99,,,-99.99,,2013-05-21 10:12:00,
2013-05-21 06:22:00,67.0,65.0,30.00,SE,136,3.0,4.0,93,-99.99,,,-99.99,,2013-05-21 10:22:00,
2013-05-21 06:32:00,68.0,66.0,30.01,East,86,3.0,4.0,93,-99.99,,,-99.99,,2013-05-21 10:32:00,
2013-05-21 06:42:00,67.0,65.0,30.02,NE,38,3.0,6.0,93,-99.99,,,-99.99,,2013-05-21 10:42:00,
2013-05-21 06:52:00,67.0,65.0,30.02,NE,38,3.0,6.0,93,-99.99,,,-99.99,,2013-05-21 10:52:00,
2013-05-21 07:02:00,68.0,66.0,30.02,NE,37,5.0,7.0,93,-99.99,,,-99.99,,2013-05-21 11:02:00,
2013-05-21 07:12:00,68.0,66.0,30.03,ENE,72,3.0,4.0,93,-99.99,,,-99.99,,2013-05-21 11:12:00,
2013-05-21 07:22:00,68.0,66.0,30.03,ENE,72,3.0,4.0,93,-99.99,,,-99.99,,2013-05-21 11:22:00,
2013-05-21 07:32:00,68.0,66.0,30.03,ENE,72,3.0,4.0,93,-99.99,,,-99.99,,2013-05-21 11:32:00,
2013-05-21 07:42:00,69.0,67.0,30.03,East,89,1.0,2.0,93,-99.99,,,-99.99,,2013-05-21 11:42:00,
2013-05-21 07:52:00,69.0,67.0,30.03,East,89,1.0,2.0,93,-99.99,,,-99.99,,2013-05-21 11:52:00,
2013-05-21 08:01:00,69.0,67.0,30.03,NE,50,3.0,6.0,93,-99.99,,,-99.99,,2013-05-21 12:01:00,
2013-05-21 08:11:00,69.0,67.0,30.04,NE,50,4.0,5.0,93,-99.99,,,-99.99,,2013-05-21 12:11:00,
2013-05-21 08:21:00,69.0,67.0,30.04,NE,50,4.0,5.0,93,-99.99,,,-99.99,,2013-05-21 12:21:00,
2013-05-21 08:32:00,69.0,67.0,30.04,NE,50,4.0,5.0,93,-99.99,,,-99.99,,2013-05-21 12:32:00,
2013-05-21 08:42:00,70.0,68.0,30.04,ESE,105,3.0,8.0,93,-99.99,,,-99.99,,2013-05-21 12:42:00,
2013-05-21 08:52:00,70.0,68.0,30.04,ESE,105,3.0,8.0,93,-99.99,,,-99.99,,2013-05-21 12:52:00,
2013-05-21 09:01:00,71.0,69.0,30.04,SE,126,6.0,9.0,92,-99.99,,,-99.99,,2013-05-21 13:01:00,
2013-05-21 09:12:00,73.0,69.0,30.06,ESE,111,4.0,7.0,89,-99.99,,,-99.99,,2013-05-21 13:12:00,
2013-05-21 09:22:00,73.0,69.0,30.06,ESE,111,4.0,7.0,89,-99.99,,,-99.99,,2013-05-21 13:22:00,
2013-05-21 09:32:00,73.0,69.0,30.06,ESE,111,4.0,7.0,89,-99.99,,,-99.99,,2013-05-21 13:32:00,
2013-05-21 09:42:00,76.0,70.0,30.07,ESE,113,3.0,6.0,80,-99.99,,,-99.99,,2013-05-21 13:42:00,
2013-05-21 09:52:00,76.0,70.0,30.07,ESE,113,3.0,6.0,80,-99.99,,,-99.99,,2013-05-21 13:52:00,
2013-05-21 10:02:00,76.0,69.0,30.07,ESE,110,4.0,6.0,80,-99.99,,,-99.99,,2013-05-21 14:02:00,
2013-05-21 10:11:00,76.0,69.0,30.07,ESE,118,5.0,9.0,79,-99.99,,,-99.99,,2013-05-21 14:11:00,
2013-05-21 10:21:00,76.0,69.0,30.07,ESE,118,5.0,9.0,79,-99.99,,,-99.99,,2013-05-21 14:21:00,
2013-05-21 10:32:00,76.0,69.0,30.07,ESE,118,5.0,9.0,79,-99.99,,,-99.99,,2013-05-21 14:32:00,
2013-05-21 10:42:00,77.0,67.0,30.07,SE,141,4.0,7.0,70,-99.99,,,-99.99,,2013-05-21 14:42:00,
2013-05-21 10:52:00,77.0,67.0,30.07,SE,141,4.0,7.0,70,-99.99,,,-99.99,,2013-05-21 14:52:00,
2013-05-21 11:01:00,79.0,67.0,30.08,SSE,155,6.0,8.0,66,-99.99,,,-99.99,,2013-05-21 15:01:00,
2013-05-21 11:11:00,79.0,67.0,30.08,SSE,151,5.0,9.0,66,-99.99,,,-99.99,,2013-05-21 15:11:00,
2013-05-21 11:21:00,79.0,67.0,30.08,SSE,151,5.0,9.0,66,-99.99,,,-99.99,,2013-05-21 15:21:00,
2013-05-21 11:33:00,79.0,67.0,30.08,SSE,151,5.0,9.0,66,-99.99,,,-99.99,,2013-05-21 15:33:00,
2013-05-21 11:42:00,81.0,68.0,30.08,SE,142,5.0,9.0,62,-99.99,,,-99.99,,2013-05-21 15:42:00,
2013-05-21 11:53:00,81.0,68.0,30.08,SE,142,5.0,9.0,62,-99.99,,,-99.99,,2013-05-21 15:53:00,
2013-05-21 12:03:00,82.0,68.0,30.08,SSE,168,5.0,14.0,62,-99.99,,,-99.99,,2013-05-21 16:03:00,
2013-05-21 12:13:00,83.0,68.0,30.07,SSE,168,5.0,11.0,61,-99.99,,,-99.99,,2013-05-21 16:13:00,
2013-05-21 12:23:00,83.0,68.0,30.07,SSE,168,5.0,11.0,61,-99.99,,,-99.99,,2013-05-21 16:23:00,
2013-05-21 12:32:00,82.0,68.0,30.07,SSE,163,7.0,12.0,61,-99.99,,,-99.99,,2013-05-21 16:32:00,
2013-05-21 12:42:00,82.0,68.0,30.06,South,188,6.0,9.0,61,-99.99,,,-99.99,,2013-05-21 16:42:00,
2013-05-21 12:53:00,82.0,68.0,30.06,South,188,6.0,9.0,61,-99.99,,,-99.99,,2013-05-21 16:53:00,
2013-05-21 13:02:00,83.0,67.0,30.05,South,187,6.0,11.0,58,-99.99,,,-99.99,,2013-05-21 17:02:00,
2013-05-21 13:12:00,83.0,66.0,30.04,South,171,7.0,31.0,56,-99.99,,,-99.99,,2013-05-21 17:12:00,
2013-05-21 13:23:00,83.0,66.0,30.04,South,171,7.0,31.0,56,-99.99,,,-99.99,,2013-05-21 17:23:00,
2013-05-21 13:33:00,83.0,66.0,30.04,South,171,7.0,31.0,56,-99.99,,,-99.99,,2013-05-21 17:33:00,
2013-05-21 13:43:00,84.0,64.0,30.03,SSE,164,4.0,7.0,51,-99.99,,,-99.99,,2013-05-21 17:43:00,
2013-05-21 13:52:00,84.0,64.0,30.03,SSE,164,4.0,7.0,51,-99.99,,,-99.99,,2013-05-21 17:52:00,
2013-05-21 14:02:00,84.0,64.0,30.03,South,180,5.0,8.0,52,-99.99,,,-99.99,,2013-05-21 18:02:00,
2013-05-21 14:12:00,84.0,66.0,30.03,SSE,154,7.0,18.0,54,-99.99,,,-99.99,,2013-05-21 18:12:00,
2013-05-21 14:22:00,84.0,66.0,30.03,SSE,154,7.0,18.0,54,-99.99,,,-99.99,,2013-05-21 18:22:00,
2013-05-21 14:32:00,84.0,66.0,30.03,SSE,154,7.0,18.0,54,-99.99,,,-99.99,,2013-05-21 18:32:00,
2013-05-21 14:42:00,76.0,70.0,30.03,East,88,12.0,20.0,79,-99.99,,,-99.99,,2013-05-21 18:42:00,
2013-05-21 14:52:00,76.0,70.0,30.03,East,88,12.0,20.0,79,-99.99,,,-99.99,,2013-05-21 18:52:00,
2013-05-21 15:02:00,74.0,69.0,30.04,ENE,74,13.0,20.0,85,-99.99,,,-99.99,,2013-05-21 19:02:00,
2013-05-21 15:11:00,73.0,68.0,30.03,ENE,67,14.0,21.0,84,-99.99,,,-99.99,,2013-05-21 19:11:00,
2013-05-21 15:22:00,73.0,68.0,30.03,ENE,67,14.0,21.0,84,-99.99,,,-99.99,,2013-05-21 19:22:00,
2013-05-21 15:32:00,73.0,68.0,30.02,ENE,67,13.0,19.0,83,-99.99,,,-99.99,,2013-05-21 19:32:00,
2013-05-21 15:42:00,72.0,67.0,30.03,NE,51,9.0,15.0,82,-99.99,,,-99.99,,2013-05-21 19:42:00,
2013-05-21 15:52:00,72.0,67.0,30.03,NE,51,9.0,15.0,82,-99.99,,,-99.99,,2013-05-21 19:52:00,
2013-05-21 16:03:00,72.0,66.0,30.04,NE,35,7.0,10.0,81,-99.99,,,-99.99,,2013-05-21 20:03:00,
2013-05-21 16:11:00,72.0,66.0,30.03,East,80,4.0,7.0,81,-99.99,,,-99.99,,2013-05-21 20:11:00,
2013-05-21 16:22:00,72.0,66.0,30.03,East,80,4.0,7.0,81,-99.99,,,-99.99,,2013-05-21 20:22:00,
2013-05-21 16:32:00,72.0,66.0,30.03,East,80,4.0,7.0,81,-99.99,,,-99.99,,2013-05-21 20:32:00,
2013-05-21 16:42:00,71.0,67.0,30.01,NNE,28,4.0,6.0,85,-99.99,,,-99.99,,2013-05-21 20:42:00,
2013-05-21 16:52:00,71.0,67.0,30.01,NNE,28,4.0,6.0,85,-99.99,,,-99.99,,2013-05-21 20:52:00,
2013-05-21 17:02:00,71.0,67.0,30.00,NE,50,5.0,9.0,85,-99.99,,,-99.99,,2013-05-21 21:02:00,
2013-05-21 17:11:00,72.0,68.0,29.98,NE,54,6.0,11.0,86,-99.99,,,-99.99,,2013-05-21 21:11:00,
2013-05-21 17:22:00,72.0,68.0,29.98,NE,54,6.0,11.0,86,-99.99,,,-99.99,,2013-05-21 21:22:00,
2013-05-21 17:33:00,72.0,68.0,29.98,NE,54,6.0,11.0,86,-99.99,,,-99.99,,2013-05-21 21:33:00,
2013-05-21 17:43:00,75.0,70.0,29.99,NE,54,7.0,12.0,82,-99.99,,,-99.99,,2013-05-21 21:43:00,
2013-05-21 17:54:00,75.0,70.0,29.99,NE,54,7.0,12.0,82,-99.99,,,-99.99,,2013-05-21 21:54:00,
2013-05-21 18:02:00,76.0,69.0,29.99,NE,41,7.0,11.0,78,-99.99,,,-99.99,,2013-05-21 22:02:00,
2013-05-21 18:12:00,76.0,69.0,29.99,NE,42,6.0,9.0,80,-99.99,,,-99.99,,2013-05-21 22:12:00,
2013-05-21 18:23:00,76.0,69.0,29.99,NE,42,6.0,9.0,80,-99.99,,,-99.99,,2013-05-21 22:23:00,
2013-05-21 18:33:00,75.0,69.0,29.98,ENE,66,6.0,8.0,80,-99.99,,,-99.99,,2013-05-21 22:33:00,
2013-05-21 18:42:00,76.0,69.0,29.99,East,79,5.0,7.0,81,-99.99,,,-99.99,,2013-05-21 22:42:00,
2013-05-21 18:53:00,76.0,69.0,29.99,East,79,5.0,7.0,81,-99.99,,,-99.99,,2013-05-21 22:53:00,
2013-05-21 19:02:00,76.0,70.0,29.99,East,88,6.0,10.0,81,-99.99,,,-99.99,,2013-05-21 23:02:00,
2013-05-21 19:12:00,76.0,70.0,29.99,East,86,5.0,7.0,81,-99.99,,,-99.99,,2013-05-21 23:12:00,
2013-05-21 19:22:00,76.0,70.0,29.99,East,86,5.0,7.0,81,-99.99,,,-99.99,,2013-05-21 23:22:00,
2013-05-21 19:32:00,76.0,70.0,29.99,East,86,5.0,7.0,81,-99.99,,,-99.99,,2013-05-21 23:32:00,
2013-05-21 19:42:00,75.0,68.0,29.99,ESE,123,10.0,17.0,77,-99.99,,,-99.99,,2013-05-21 23:42:00,
2013-05-21 19:52:00,75.0,68.0,29.99,ESE,123,10.0,17.0,77,-99.99,,,-99.99,,2013-05-21 23:52:00,
2013-05-21 20:01:00,74.0,67.0,29.99,SE,134,8.0,16.0,78,-99.99,,,-99.99,,2013-05-22 00:01:00,
2013-05-21 20:11:00,73.0,67.0,29.99,SE,125,5.0,8.0,80,-99.99,,,-99.99,,2013-05-22 00:11:00,
2013-05-21 20:21:00,73.0,67.0,29.99,SE,125,5.0,8.0,80,-99.99,,,-99.99,,2013-05-22 00:21:00,
2013-05-21 20:32:00,73.0,67.0,29.99,SE,125,5.0,8.0,80,-99.99,,,-99.99,,2013-05-22 00:32:00,
2013-05-21 20:42:00,73.0,68.0,29.99,East,84,3.0,5.0,83,-99.99,,,-99.99,,2013-05-22 00:42:00,
2013-05-21 20:52:00,73.0,68.0,29.99,East,84,3.0,5.0,83,-99.99,,,-99.99,,2013-05-22 00:52:00,
2013-05-21 21:01:00,73.0,68.0,29.99,ENE,57,2.0,3.0,84,-99.99,,,-99.99,,2013-05-22 01:01:00,
2013-05-21 21:11:00,72.0,68.0,30.00,NE,40,2.0,4.0,86,-99.99,,,-99.99,,2013-05-22 01:11:00,
2013-05-21 21:22:00,72.0,68.0,30.00,NE,40,2.0,4.0,86,-99.99,,,-99.99,,2013-05-22 01:22:00,
2013-05-21 21:32:00,72.0,68.0,30.00,ESE,110,2.0,7.0,87,-99.99,,,-99.99,,2013-05-22 01:32:00,
2013-05-21 21:42:00,72.0,67.0,30.00,SE,124,3.0,8.0,86,-99.99,,,-99.99,,2013-05-22 01:42:00,
2013-05-21 21:52:00,72.0,67.0,30.00,SE,124,3.0,8.0,86,-99.99,,,-99.99,,2013-05-22 01:52:00,
2013-05-21 22:02:00,72.0,67.0,30.00,East,101,4.0,6.0,85,-99.99,,,-99.99,,2013-05-22 02:02:00,
2013-05-21 22:12:00,72.0,67.0,30.00,ESE,104,3.0,5.0,85,-99.99,,,-99.99,,2013-05-22 02:12:00,
2013-05-21 22:22:00,72.0,67.0,30.00,ESE,104,3.0,5.0,85,-99.99,,,-99.99,,2013-05-22 02:22:00,
2013-05-21 22:32:00,72.0,67.0,30.00,ESE,104,3.0,5.0,85,-99.99,,,-99.99,,2013-05-22 02:32:00,
2013-05-21 22:42:00,71.0,66.0,29.99,SE,143,3.0,4.0,86,-99.99,,,-99.99,,2013-05-22 02:42:00,
2013-05-21 22:52:00,71.0,66.0,29.99,SE,143,3.0,4.0,86,-99.99,,,-99.99,,2013-05-22 02:52:00,
2013-05-21 23:01:00,70.0,66.0,29.99,ESE,111,4.0,5.0,87,-99.99,,,-99.99,,2013-05-22 03:01:00,
2013-05-21 23:11:00,70.0,66.0,30.00,ENE,71,3.0,4.0,87,-99.99,,,-99.99,,2013-05-22 03:11:00,
2013-05-21 23:22:00,70.0,66.0,30.00,ENE,71,3.0,4.0,87,-99.99,,,-99.99,,2013-05-22 03:22:00,
2013-05-21 23:33:00,70.0,66.0,30.00,NE,50,5.0,6.0,87,-99.99,,,-99.99,,2013-05-22 03:33:00,
2013-05-21 23:43:00,69.0,66.0,30.00,ENE,58,4.0,7.0,88,-99.99,,,-99.99,,2013-05-22 03:43:00,
2013-05-21 23:53:00,69.0,66.0,30.00,ENE,58,4.0,7.0,88,-99.99,,,-99.99,,2013-05-22 03:53:00,